createdAt,value
2023-10-24T00:00:35.872Z,12.50
2023-10-24T00:03:02.867Z,12.40
2023-10-24T00:05:30.463Z,12.40
2023-10-24T00:07:57.843Z,12.40
2023-10-24T00:10:25.260Z,12.40
2023-10-24T00:12:52.346Z,12.40
2023-10-24T00:15:19.143Z,12.40
2023-10-24T00:17:46.018Z,12.40
2023-10-24T00:20:13.057Z,12.40
2023-10-24T00:22:39.967Z,12.40
2023-10-24T00:25:08.044Z,12.30
2023-10-24T00:27:34.933Z,12.20
2023-10-24T00:30:01.740Z,12.20
2023-10-24T00:32:28.736Z,12.10
2023-10-24T00:34:55.536Z,12.10
2023-10-24T00:37:22.397Z,12.00
2023-10-24T00:39:49.471Z,12.00
2023-10-24T00:42:16.282Z,12.00
2023-10-24T00:44:43.185Z,12.00
2023-10-24T00:47:10.580Z,12.00
2023-10-24T00:49:37.689Z,12.00
2023-10-24T00:52:05.394Z,12.00
2023-10-24T00:54:33.126Z,12.00
2023-10-24T00:57:00.354Z,12.10
2023-10-24T00:59:28.044Z,12.10
2023-10-24T01:01:55.237Z,12.00
2023-10-24T01:04:25.176Z,11.90
2023-10-24T01:06:52.003Z,11.90
2023-10-24T01:09:27.492Z,11.90
2023-10-24T01:11:54.845Z,11.90
2023-10-24T01:14:21.850Z,11.90
2023-10-24T01:16:48.779Z,11.90
2023-10-24T01:19:15.787Z,11.80
2023-10-24T01:21:46.985Z,11.90
2023-10-24T01:24:15.197Z,11.80
2023-10-24T01:26:43.131Z,11.80
2023-10-24T01:29:12.961Z,11.80
2023-10-24T01:31:39.947Z,11.80
2023-10-24T01:34:06.825Z,11.70
2023-10-24T01:36:33.638Z,11.80
2023-10-24T01:39:00.445Z,11.80
2023-10-24T01:41:27.230Z,11.80
2023-10-24T01:43:54.181Z,11.80
2023-10-24T01:46:21.061Z,11.80
2023-10-24T01:48:48.015Z,11.80
2023-10-24T01:51:14.848Z,11.80
2023-10-24T01:53:41.702Z,11.80
2023-10-24T01:56:10.981Z,11.80
2023-10-24T01:58:37.956Z,11.80
2023-10-24T02:01:04.967Z,11.80
2023-10-24T02:03:31.936Z,11.80
2023-10-24T02:05:59.203Z,11.80
2023-10-24T02:08:26.015Z,11.90
2023-10-24T02:10:52.939Z,11.90
2023-10-24T02:13:19.894Z,11.90
2023-10-24T02:15:46.736Z,11.90
2023-10-24T02:18:13.651Z,11.90
2023-10-24T02:20:40.498Z,12.00
2023-10-24T02:23:07.337Z,11.90
2023-10-24T02:25:49.216Z,11.90
2023-10-24T02:28:16.268Z,12.00
2023-10-24T02:30:43.063Z,11.90
2023-10-24T02:33:09.846Z,11.90
2023-10-24T02:35:36.621Z,11.90
2023-10-24T02:38:03.464Z,11.80
2023-10-24T02:40:30.332Z,11.70
2023-10-24T02:42:57.138Z,11.70
2023-10-24T02:45:24.918Z,11.70
2023-10-24T02:47:51.865Z,11.70
2023-10-24T02:50:18.874Z,11.60
2023-10-24T02:52:45.884Z,11.60
2023-10-24T02:55:12.922Z,11.50
2023-10-24T02:57:39.799Z,11.50
2023-10-24T03:00:07.474Z,11.40
2023-10-24T03:02:34.322Z,11.40
2023-10-24T03:05:01.263Z,11.40
2023-10-24T03:07:28.089Z,11.40
2023-10-24T03:09:54.916Z,11.30
2023-10-24T03:12:21.706Z,11.30
2023-10-24T03:14:48.521Z,11.20
2023-10-24T03:17:15.389Z,11.20
2023-10-24T03:19:42.457Z,11.20
2023-10-24T03:22:09.276Z,11.20
2023-10-24T03:24:36.146Z,11.20
2023-10-24T03:27:03.275Z,11.20
2023-10-24T03:29:30.128Z,11.10
2023-10-24T03:31:57.005Z,11.10
2023-10-24T03:34:24.381Z,11.10
2023-10-24T03:36:51.456Z,11.10
2023-10-24T03:39:18.482Z,11.10
2023-10-24T03:41:48.359Z,11.00
2023-10-24T03:44:15.418Z,11.00
2023-10-24T03:46:42.457Z,10.90
2023-10-24T03:49:09.474Z,10.90
2023-10-24T03:51:36.398Z,10.90
2023-10-24T03:54:05.230Z,10.90
2023-10-24T03:56:32.791Z,10.90
2023-10-24T03:59:00.363Z,10.90
2023-10-24T04:01:27.308Z,10.90
2023-10-24T04:03:54.275Z,10.90
2023-10-24T04:06:21.193Z,10.90
2023-10-24T04:08:48.031Z,10.90
2023-10-24T04:11:16.919Z,10.90
2023-10-24T04:13:44.985Z,10.90
2023-10-24T04:16:12.282Z,10.90
2023-10-24T04:18:40.200Z,10.90
2023-10-24T04:21:07.100Z,10.90
2023-10-24T04:23:33.900Z,11.00
2023-10-24T04:26:01.439Z,10.90
2023-10-24T04:28:28.497Z,10.90
2023-10-24T04:30:55.503Z,11.00
2023-10-24T04:33:22.533Z,11.00
2023-10-24T04:35:51.798Z,11.00
2023-10-24T04:38:19.152Z,11.10
2023-10-24T04:40:46.454Z,11.10
2023-10-24T04:43:13.907Z,11.10
2023-10-24T04:45:40.768Z,11.10
2023-10-24T04:48:08.017Z,11.20
2023-10-24T04:50:40.093Z,11.20
2023-10-24T04:53:07.724Z,11.10
2023-10-24T04:55:34.731Z,11.10
2023-10-24T04:58:01.740Z,11.10
2023-10-24T05:00:28.548Z,11.10
2023-10-24T05:02:55.587Z,11.10
2023-10-24T05:05:22.505Z,11.10
2023-10-24T05:07:50.298Z,11.10
2023-10-24T05:10:17.225Z,11.10
2023-10-24T05:12:45.523Z,11.10
2023-10-24T05:15:12.357Z,11.10
2023-10-24T05:17:39.553Z,11.20
2023-10-24T05:20:08.717Z,11.20
2023-10-24T05:22:36.116Z,11.20
2023-10-24T05:25:03.641Z,11.30
2023-10-24T05:27:33.028Z,11.40
2023-10-24T05:29:59.944Z,11.40
2023-10-24T05:32:26.909Z,11.30
2023-10-24T05:34:53.867Z,11.40
2023-10-24T05:37:20.829Z,11.40
2023-10-24T05:40:53.985Z,11.30
2023-10-24T05:46:02.618Z,11.30
2023-10-24T05:48:29.621Z,11.40
2023-10-24T05:50:56.460Z,11.30
2023-10-24T05:53:25.897Z,11.30
2023-10-24T05:55:55.429Z,11.30
2023-10-24T05:58:24.349Z,11.20
2023-10-24T06:00:52.727Z,11.20
2023-10-24T06:03:20.881Z,11.20
2023-10-24T06:05:50.618Z,11.30
2023-10-24T06:08:17.557Z,11.20
2023-10-24T06:10:49.013Z,11.30
2023-10-24T06:13:17.960Z,11.30
2023-10-24T06:15:44.848Z,11.40
2023-10-24T06:18:11.771Z,11.40
2023-10-24T06:20:41.836Z,11.40
2023-10-24T06:23:09.070Z,11.50
2023-10-24T06:25:39.797Z,11.50
2023-10-24T06:28:07.256Z,11.40
2023-10-24T06:30:35.104Z,11.40
2023-10-24T06:33:02.874Z,11.50
2023-10-24T06:35:29.773Z,11.40
2023-10-24T06:37:58.099Z,11.30
2023-10-24T06:40:25.218Z,11.30
2023-10-24T06:42:52.657Z,11.30
2023-10-24T06:45:19.688Z,11.30
2023-10-24T06:47:47.261Z,11.40
2023-10-24T06:50:14.236Z,11.50
2023-10-24T06:52:43.398Z,11.50
2023-10-24T06:55:10.811Z,11.60
2023-10-24T06:57:37.673Z,11.70
2023-10-24T07:00:05.425Z,11.70
2023-10-24T07:02:35.084Z,11.80
2023-10-24T07:05:02.284Z,11.80
2023-10-24T07:07:29.273Z,11.90
2023-10-24T07:09:56.198Z,11.90
2023-10-24T07:12:23.188Z,12.00
2023-10-24T07:14:54.356Z,12.00
2023-10-24T07:17:21.247Z,11.90
2023-10-24T07:19:48.155Z,12.00
2023-10-24T07:22:15.027Z,12.00
2023-10-24T07:24:42.223Z,12.00
2023-10-24T07:27:10.546Z,12.10
2023-10-24T07:29:37.493Z,12.10
2023-10-24T07:32:04.923Z,12.20
2023-10-24T07:34:34.350Z,12.20
2023-10-24T07:37:04.006Z,12.20
2023-10-24T07:39:30.838Z,12.30
2023-10-24T07:41:57.681Z,12.30
2023-10-24T07:44:24.557Z,12.30
2023-10-24T07:46:51.531Z,12.40
2023-10-24T07:49:18.379Z,12.40
2023-10-24T07:51:45.385Z,12.50
2023-10-24T07:54:12.620Z,12.30
2023-10-24T07:56:40.860Z,12.20
2023-10-24T07:59:11.078Z,12.20
2023-10-24T08:01:38.108Z,12.40
2023-10-24T08:04:05.248Z,12.20
2023-10-24T08:06:32.045Z,12.30
2023-10-24T08:08:58.849Z,12.40
2023-10-24T08:11:25.774Z,12.50
2023-10-24T08:13:52.851Z,12.50
2023-10-24T08:16:21.915Z,12.60
2023-10-24T08:21:29.925Z,12.50
2023-10-24T08:23:57.564Z,12.50
2023-10-24T08:26:24.472Z,12.60
2023-10-24T08:28:51.428Z,12.80
2023-10-24T08:31:18.349Z,12.80
2023-10-24T08:33:45.147Z,12.80
2023-10-24T08:36:12.052Z,12.60
2023-10-24T08:38:39.353Z,12.70
2023-10-24T08:41:06.727Z,12.80
2023-10-24T08:43:35.408Z,12.90
2023-10-24T08:46:03.453Z,13.00
2023-10-24T08:48:35.503Z,12.90
2023-10-24T08:51:02.628Z,12.70
2023-10-24T08:53:29.495Z,12.50
2023-10-24T08:55:59.167Z,12.60
2023-10-24T08:58:29.185Z,12.70
2023-10-24T09:00:56.248Z,12.70
2023-10-24T09:03:23.953Z,12.60
2023-10-24T09:05:52.982Z,12.70
2023-10-24T09:08:20.102Z,12.80
2023-10-24T09:10:47.482Z,12.70
2023-10-24T09:14:08.574Z,12.60
2023-10-24T09:16:36.249Z,12.80
2023-10-24T09:19:15.242Z,12.60
2023-10-24T09:21:49.895Z,12.70
2023-10-24T09:24:27.411Z,12.80
2023-10-24T09:26:58.177Z,12.70
2023-10-24T09:29:27.659Z,12.80
2023-10-24T09:31:58.402Z,12.90
2023-10-24T09:34:28.281Z,13.00
2023-10-24T09:37:09.532Z,13.00
2023-10-24T09:39:56.347Z,13.10
2023-10-24T09:42:33.637Z,13.20
2023-10-24T09:45:08.622Z,13.20
2023-10-24T09:47:41.171Z,13.20
2023-10-24T09:50:11.464Z,13.20
2023-10-24T09:52:39.406Z,13.30
2023-10-24T09:55:07.005Z,13.20
2023-10-24T09:57:34.738Z,13.20
2023-10-24T10:00:04.802Z,13.00
2023-10-24T10:02:31.925Z,13.00
2023-10-24T10:04:59.110Z,12.90
2023-10-24T10:07:27.775Z,12.90
2023-10-24T10:09:56.733Z,12.90
2023-10-24T10:20:24.254Z,12.90
2023-10-24T10:23:18.956Z,13.00
2023-10-24T10:26:03.112Z,13.00
2023-10-24T10:28:44.271Z,13.00
2023-10-24T10:32:40.127Z,12.80
2023-10-24T10:34:38.688Z,12.90
2023-10-24T10:37:06.409Z,13.10
2023-10-24T10:39:33.310Z,13.10
2023-10-24T10:42:01.128Z,13.10
2023-10-24T10:44:43.029Z,13.10
2023-10-24T10:47:29.070Z,13.00
2023-10-24T10:50:01.084Z,13.10
2023-10-24T10:52:56.463Z,13.00
2023-10-24T10:55:39.383Z,13.00
2023-10-24T10:58:18.214Z,13.00
2023-10-24T11:01:03.553Z,13.00
2023-10-24T11:03:39.664Z,13.00
2023-10-24T11:06:17.517Z,13.00
2023-10-24T11:09:10.036Z,13.00
2023-10-24T11:11:41.143Z,13.00
2023-10-24T11:14:18.783Z,12.90
2023-10-24T11:16:47.812Z,12.90
2023-10-24T11:19:22.746Z,12.90
2023-10-24T11:21:51.016Z,12.80
2023-10-24T11:24:25.257Z,12.90
2023-10-24T11:27:02.046Z,12.90
2023-10-24T11:29:29.395Z,12.90
2023-10-24T11:31:59.318Z,12.90
2023-10-24T11:34:26.286Z,12.90
2023-10-24T11:36:53.271Z,12.90
2023-10-24T11:39:22.971Z,13.00
2023-10-24T11:41:49.747Z,12.90
2023-10-24T11:44:29.733Z,12.90
2023-10-24T11:47:28.820Z,12.90
2023-10-24T11:49:56.905Z,12.90
2023-10-24T11:52:25.037Z,12.90
2023-10-24T11:54:53.866Z,12.80
2023-10-24T11:57:21.549Z,12.80
2023-10-24T11:59:51.878Z,12.80
2023-10-24T12:04:01.070Z,12.80
2023-10-24T12:06:40.825Z,12.70
2023-10-24T12:09:53.759Z,12.70
2023-10-24T12:13:31.581Z,12.70
2023-10-24T12:16:59.197Z,12.50
2023-10-24T12:20:42.845Z,12.60
2023-10-24T12:55:55.272Z,12.50
2023-10-24T13:18:56.602Z,12.60
2023-10-24T13:25:11.068Z,12.60
2023-10-24T13:27:53.275Z,12.60
2023-10-24T13:30:33.793Z,12.60
2023-10-24T13:33:06.929Z,12.70
2023-10-24T13:38:16.120Z,12.80
2023-10-24T13:40:53.012Z,12.80
2023-10-24T13:43:20.126Z,12.80
2023-10-24T13:45:57.241Z,12.80
2023-10-24T13:48:24.579Z,12.80
2023-10-24T13:50:51.905Z,12.90
2023-10-24T13:53:22.672Z,12.90
2023-10-24T13:56:37.912Z,12.90
2023-10-24T13:59:07.653Z,12.90
2023-10-24T14:01:35.032Z,12.90
2023-10-24T14:04:03.843Z,12.90
2023-10-24T14:06:31.052Z,13.00
2023-10-24T14:08:58.246Z,13.00
2023-10-24T14:11:25.224Z,13.00
2023-10-24T14:13:52.193Z,13.00
2023-10-24T14:16:19.285Z,13.10
2023-10-24T14:18:46.188Z,13.10
2023-10-24T14:21:13.103Z,13.10
2023-10-24T14:23:39.958Z,13.10
2023-10-24T14:26:11.812Z,13.10
2023-10-24T14:28:39.972Z,13.10
2023-10-24T14:31:06.927Z,13.10
2023-10-24T14:33:33.760Z,13.20
2023-10-24T14:36:00.632Z,13.20
2023-10-24T14:38:27.580Z,13.30
2023-10-24T14:40:54.561Z,13.30
2023-10-24T14:43:22.444Z,13.40
2023-10-24T14:45:49.274Z,13.40
2023-10-24T14:48:17.628Z,13.40
2023-10-24T14:50:44.980Z,13.50
2023-10-24T14:53:12.313Z,13.50
2023-10-24T14:55:39.267Z,13.50
2023-10-24T14:58:07.081Z,13.50
2023-10-24T15:00:36.884Z,13.50
2023-10-24T15:03:04.401Z,13.50
2023-10-24T15:05:31.295Z,13.60
2023-10-24T15:07:58.410Z,13.60
2023-10-24T15:10:25.361Z,13.70
2023-10-24T15:12:52.177Z,13.70
2023-10-24T15:15:18.960Z,13.70
2023-10-24T15:17:46.214Z,13.70
2023-10-24T15:20:13.218Z,13.70
2023-10-24T15:22:40.105Z,13.70
2023-10-24T15:25:20.514Z,13.70
2023-10-24T15:27:47.382Z,13.70
2023-10-24T15:30:14.472Z,13.60
2023-10-24T15:32:41.470Z,13.60
2023-10-24T15:35:11.249Z,13.60
2023-10-24T15:37:38.604Z,13.60
2023-10-24T15:40:09.177Z,13.60
2023-10-24T15:42:37.342Z,13.60
2023-10-24T15:45:04.666Z,13.50
2023-10-24T15:47:38.551Z,13.50
2023-10-24T15:50:07.168Z,13.50
2023-10-24T15:52:34.108Z,13.40
2023-10-24T15:55:13.178Z,13.40
2023-10-24T15:57:44.618Z,13.50
2023-10-24T16:00:12.049Z,13.50
2023-10-24T16:02:38.914Z,13.50
2023-10-24T16:05:06.202Z,13.40
2023-10-24T16:07:33.078Z,13.50
2023-10-24T16:09:59.869Z,13.40
2023-10-24T16:12:27.968Z,13.40
2023-10-24T16:14:54.914Z,13.40
2023-10-24T16:17:21.700Z,13.40
2023-10-24T16:19:48.619Z,13.30
2023-10-24T16:22:15.560Z,13.30
2023-10-24T16:24:42.740Z,13.30
2023-10-24T16:27:09.900Z,13.30
2023-10-24T16:29:36.691Z,13.30
2023-10-24T16:32:04.554Z,13.30
2023-10-24T16:34:31.584Z,13.30
2023-10-24T16:36:58.461Z,13.30
2023-10-24T16:39:25.316Z,13.30
2023-10-24T16:41:52.185Z,13.30
2023-10-24T16:44:21.096Z,13.20
2023-10-24T16:46:48.772Z,13.20
2023-10-24T16:49:15.704Z,13.20
2023-10-24T16:51:42.526Z,13.30
2023-10-24T16:54:09.430Z,13.30
2023-10-24T16:56:37.432Z,13.20
2023-10-24T16:59:04.416Z,13.20
2023-10-24T17:01:31.335Z,13.30
2023-10-24T17:03:59.280Z,13.20
2023-10-24T17:06:26.106Z,13.20
2023-10-24T17:08:52.933Z,13.20
2023-10-24T17:11:20.983Z,13.20
2023-10-24T17:13:47.938Z,13.20
2023-10-24T17:16:15.533Z,13.10
2023-10-24T17:18:42.481Z,13.20
2023-10-24T17:21:10.071Z,13.20
2023-10-24T17:23:37.004Z,13.20
2023-10-24T17:26:03.900Z,13.20
2023-10-24T17:28:32.907Z,13.20
2023-10-24T17:31:01.688Z,13.20
2023-10-24T17:33:30.531Z,13.20
2023-10-24T17:35:57.544Z,13.20
2023-10-24T17:38:24.450Z,13.10
2023-10-24T17:40:52.291Z,13.20
2023-10-24T17:43:19.954Z,13.20
2023-10-24T17:50:04.075Z,13.20
2023-10-24T17:53:09.276Z,13.20
2023-10-24T17:56:22.509Z,13.20
2023-10-24T18:05:16.510Z,13.20
2023-10-24T18:11:47.525Z,13.20
2023-10-24T18:18:40.370Z,13.10
2023-10-24T18:21:16.461Z,13.10
2023-10-24T18:29:33.812Z,13.10
2023-10-24T18:32:30.893Z,13.00
2023-10-24T18:43:14.834Z,13.00
2023-10-24T18:45:53.540Z,13.00
2023-10-24T18:57:02.739Z,13.00
2023-10-24T19:06:18.621Z,13.00
2023-10-24T19:09:10.949Z,13.00
2023-10-24T19:14:30.210Z,13.00
2023-10-24T19:18:00.007Z,13.00
2023-10-24T19:24:36.845Z,13.00
2023-10-24T19:27:05.252Z,13.00
2023-10-24T19:30:04.759Z,12.90
2023-10-24T19:32:53.186Z,13.00
2023-10-24T19:35:30.437Z,12.90
2023-10-24T19:37:58.428Z,12.90
2023-10-24T19:40:28.457Z,12.90
2023-10-24T19:47:33.719Z,13.00
2023-10-24T19:50:25.924Z,12.90
2023-10-24T19:54:03.770Z,12.90
2023-10-24T19:56:34.465Z,12.80
2023-10-24T19:59:13.835Z,12.80
2023-10-24T20:01:40.891Z,12.80
2023-10-24T20:04:15.792Z,12.80
2023-10-24T20:07:28.204Z,12.80
2023-10-24T20:11:07.819Z,12.80
2023-10-24T20:12:44.197Z,12.90
2023-10-24T20:15:12.709Z,12.80
2023-10-24T20:17:44.052Z,12.80
2023-10-24T20:23:18.357Z,12.80
2023-10-24T20:31:42.551Z,12.80
2023-10-24T20:34:47.352Z,12.70
2023-10-24T20:37:29.132Z,12.80
2023-10-24T20:40:21.798Z,12.70
2023-10-24T20:43:07.468Z,12.80
2023-10-24T20:46:04.575Z,12.80
2023-10-24T20:48:36.069Z,12.70
2023-10-24T20:51:24.444Z,12.70
2023-10-24T20:54:02.562Z,12.70
2023-10-24T20:56:29.624Z,12.70
2023-10-24T20:58:56.413Z,12.80
2023-10-24T21:01:40.855Z,12.80
2023-10-24T21:04:57.973Z,12.80
2023-10-24T21:07:28.709Z,12.80
2023-10-24T21:09:58.846Z,12.80
2023-10-24T21:12:32.598Z,12.80
2023-10-24T21:15:00.283Z,12.90
2023-10-24T21:21:27.431Z,12.90
2023-10-24T21:24:08.947Z,12.90
2023-10-24T21:26:43.710Z,12.90
2023-10-24T21:29:49.192Z,13.00
2023-10-24T21:33:15.148Z,12.90
2023-10-24T21:35:44.728Z,12.90
2023-10-24T21:38:11.519Z,13.00
2023-10-24T21:40:40.260Z,13.00
2023-10-24T21:43:07.218Z,13.00
2023-10-24T21:45:45.773Z,13.00
2023-10-24T21:55:34.226Z,12.90
2023-10-24T21:58:40.601Z,12.80
2023-10-24T22:01:14.104Z,12.80
2023-10-24T22:06:47.693Z,12.70
2023-10-24T22:09:02.179Z,12.70
2023-10-24T22:09:14.581Z,12.70
2023-10-24T22:17:43.085Z,12.60
2023-10-24T22:23:58.219Z,12.60
2023-10-24T22:26:25.133Z,12.70
2023-10-24T22:32:37.232Z,12.70
2023-10-24T22:35:04.434Z,12.70
2023-10-24T22:38:20.602Z,12.60
2023-10-24T22:45:04.089Z,12.50
2023-10-24T22:48:24.825Z,12.50
2023-10-24T22:50:51.900Z,12.50
2023-10-24T22:53:45.110Z,12.50
2023-10-24T22:58:07.622Z,12.50
2023-10-24T23:00:44.956Z,12.40
2023-10-24T23:06:50.864Z,12.30
2023-10-24T23:12:53.779Z,12.20
2023-10-24T23:15:20.646Z,12.20
2023-10-24T23:24:36.267Z,12.10
2023-10-24T23:27:11.016Z,12.00
2023-10-24T23:33:08.058Z,12.10
2023-10-24T23:36:10.484Z,12.00
2023-10-24T23:38:37.305Z,12.10
2023-10-24T23:42:05.098Z,12.10
2023-10-24T23:44:40.138Z,12.10
